Time;durP1;ratioP1;P1;durP2;ratioP2;P2;SDS_P1;SDS_P2;PMS_P1;PMS_P2;Temp;Humidity;BMP_temperature;BMP_pressure;BME280_temperature;BME280_humidity;BME280_pressure;Samples;Min_cycle;Max_cycle;Signal;HPM_P1;HPM_P2
2022/03/16 00:00:11;;;;;;;28.10;14.68;;;;;;;1.67;95.71;102459.25;5091619;28;20729;-83
2022/03/16 00:02:37;;;;;;;28.20;14.77;;;;;;;1.59;95.15;102458.97;5080259;28;20514;-83
2022/03/16 00:05:03;;;;;;;28.85;14.40;;;;;;;1.56;95.29;102462.28;5095504;28;20031;-83
2022/03/16 00:07:30;;;;;;;27.45;14.38;;;;;;;1.49;95.35;102460.31;5102091;28;20064;-83
2022/03/16 00:09:56;;;;;;;29.90;14.40;;;;;;;1.51;95.71;102470.56;5077804;28;20028;-84
2022/03/16 00:12:21;;;;;;;29.20;14.77;;;;;;;1.52;96.00;102472.31;5090561;28;20020;-84
2022/03/16 00:14:46;;;;;;;30.25;14.98;;;;;;;1.54;96.48;102468.13;5092459;28;20020;-83
2022/03/16 00:17:12;;;;;;;28.52;14.98;;;;;;;1.55;96.78;102460.53;5090585;28;20054;-83
2022/03/16 00:19:39;;;;;;;27.02;14.77;;;;;;;1.53;96.76;102456.16;5110015;28;20024;-83
2022/03/16 00:22:05;;;;;;;29.52;14.13;;;;;;;1.51;96.25;102460.34;5093491;28;20024;-83
2022/03/16 00:24:31;;;;;;;32.63;14.70;;;;;;;1.47;96.15;102473.81;5082893;28;20445;-83
2022/03/16 00:26:57;;;;;;;30.77;15.15;;;;;;;1.40;95.86;102465.03;5099038;28;20115;-83
2022/03/16 00:29:22;;;;;;;31.63;15.02;;;;;;;1.40;96.24;102469.28;5094968;28;20071;-83
2022/03/16 00:31:48;;;;;;;32.08;14.90;;;;;;;1.37;95.81;102469.13;5096335;28;20099;-83
2022/03/16 00:34:14;;;;;;;30.08;14.77;;;;;;;1.30;96.08;102462.91;5091195;28;20378;-83
2022/03/16 00:36:39;;;;;;;33.30;15.50;;;;;;;1.31;96.50;102461.25;5092435;28;20032;-83
2022/03/16 00:39:05;;;;;;;33.30;15.65;;;;;;;1.29;96.50;102473.09;5092572;28;20039;-83
2022/03/16 00:41:31;;;;;;;28.95;15.20;;;;;;;1.26;96.23;102472.97;5090201;28;20032;-83
2022/03/16 00:43:57;;;;;;;30.83;15.13;;;;;;;1.22;95.95;102476.22;5110719;28;20098;-83
2022/03/16 00:46:22;;;;;;;35.45;15.30;;;;;;;1.20;95.98;102468.47;5092041;28;20127;-83
2022/03/16 00:48:48;;;;;;;31.25;15.55;;;;;;;1.15;96.11;102465.75;5100314;28;20076;-83
2022/03/16 00:51:13;;;;;;;32.47;16.20;;;;;;;1.15;96.10;102475.09;5093195;28;20043;-84
2022/03/16 00:53:40;;;;;;;36.17;16.08;;;;;;;1.13;96.41;102479.25;5103896;28;20032;-84
2022/03/16 00:56:07;;;;;;;33.90;15.90;;;;;;;1.10;96.31;102476.56;5089056;28;20047;-83
2022/03/16 00:58:33;;;;;;;32.60;16.13;;;;;;;1.06;96.12;102469.59;5090903;28;20020;-83
2022/03/16 01:00:59;;;;;;;33.35;15.57;;;;;;;1.05;96.33;102472.97;5089250;28;20388;-83
2022/03/16 01:03:25;;;;;;;33.63;15.30;;;;;;;1.01;96.68;102466.00;5071964;28;20484;-83
2022/03/16 01:05:50;;;;;;;33.75;15.68;;;;;;;1.02;96.72;102460.97;5089708;28;20050;-83
2022/03/16 01:08:16;;;;;;;33.60;16.80;;;;;;;0.98;96.54;102459.06;5092877;28;20048;-83
2022/03/16 01:10:42;;;;;;;35.45;17.02;;;;;;;0.97;96.71;102456.44;5091725;28;20114;-83
2022/03/16 01:13:07;;;;;;;34.47;16.50;;;;;;;0.96;96.88;102459.81;5071669;28;20103;-84
2022/03/16 01:15:33;;;;;;;38.47;17.42;;;;;;;0.95;96.69;102463.19;5092099;28;20675;-84
2022/03/16 01:17:58;;;;;;;37.65;17.42;;;;;;;0.92;96.50;102448.63;5090592;28;20427;-84
2022/03/16 01:20:23;;;;;;;40.40;17.60;;;;;;;0.95;96.36;102461.50;5107649;28;20066;-83
2022/03/16 01:22:49;;;;;;;41.60;18.50;;;;;;;0.97;96.84;102453.91;5071348;28;20464;-84
2022/03/16 01:25:14;;;;;;;46.58;20.75;;;;;;;1.05;97.82;102452.53;5088484;28;20059;-84
2022/03/16 01:27:39;;;;;;;44.28;19.25;;;;;;;1.04;98.54;102446.56;5090303;28;20100;-83
2022/03/16 01:30:06;;;;;;;36.72;16.80;;;;;;;1.03;97.83;102449.91;5100566;28;20450;-83
2022/03/16 01:32:32;;;;;;;41.22;18.98;;;;;;;1.04;97.71;102446.56;5089364;28;20042;-83
2022/03/16 01:34:57;;;;;;;43.22;19.65;;;;;;;1.06;98.09;102441.50;5077844;28;20032;-83
2022/03/16 01:37:22;;;;;;;41.40;19.42;;;;;;;1.04;97.98;102440.56;5093580;28;20040;-83
2022/03/16 01:39:48;;;;;;;44.55;19.08;;;;;;;1.04;97.43;102438.91;5071810;28;20028;-83
2022/03/16 01:42:14;;;;;;;40.60;18.75;;;;;;;1.07;97.82;102445.81;5089462;28;20536;-83
2022/03/16 01:44:40;;;;;;;43.13;18.88;;;;;;;1.04;97.91;102430.38;5093659;28;20027;-83
2022/03/16 01:47:06;;;;;;;40.28;19.10;;;;;;;1.09;97.98;102434.00;5093459;28;20031;-84
2022/03/16 01:49:31;;;;;;;40.17;18.67;;;;;;;1.09;98.20;102437.38;5097463;28;20392;-83
2022/03/16 01:51:57;;;;;;;39.58;18.27;;;;;;;1.08;98.49;102422.91;5094683;28;20089;-83
2022/03/16 01:54:22;;;;;;;39.05;18.80;;;;;;;1.12;98.48;102426.44;5085048;28;20031;-83
2022/03/16 01:56:47;;;;;;;38.58;18.70;;;;;;;1.13;98.40;102431.63;5085476;28;20388;-83
2022/03/16 01:59:13;;;;;;;40.92;18.60;;;;;;;1.16;98.83;102429.16;5095400;28;20024;-83
2022/03/16 02:01:38;;;;;;;40.53;19.33;;;;;;;1.19;99.07;102421.63;5107105;28;20023;-83
2022/03/16 02:04:04;;;;;;;41.25;19.85;;;;;;;1.27;99.45;102409.19;5128636;28;20039;-83
2022/03/16 02:06:29;;;;;;;42.47;19.90;;;;;;;1.27;99.87;102409.19;5101792;28;20028;-83
2022/03/16 02:08:55;;;;;;;45.80;20.23;;;;;;;1.34;99.77;102411.16;5086566;28;20054;-83
2022/03/16 02:11:21;;;;;;;36.17;18.52;;;;;;;1.36;99.68;102407.00;5083498;28;20024;-83
2022/03/16 02:13:47;;;;;;;37.90;18.33;;;;;;;1.39;99.89;102393.44;5081290;28;20059;-83
2022/03/16 02:16:13;;;;;;;45.80;21.55;;;;;;;1.47;100.00;102395.50;5087598;28;20110;-83
2022/03/16 02:18:38;;;;;;;46.40;21.08;;;;;;;1.59;100.00;102395.06;5076221;28;20028;-83
2022/03/16 02:21:06;;;;;;;46.10;21.67;;;;;;;1.63;100.00;102393.53;5075518;28;20653;-83
2022/03/16 02:23:31;;;;;;;51.47;23.02;;;;;;;1.68;100.00;102386.88;5086696;28;20032;-83
2022/03/16 02:25:57;;;;;;;46.20;21.13;;;;;;;1.76;100.00;102390.59;5077073;28;20031;-83
2022/03/16 02:28:24;;;;;;;47.08;22.95;;;;;;;1.79;100.00;102390.69;5078177;28;20028;-83
2022/03/16 02:30:50;;;;;;;50.63;23.65;;;;;;;1.82;100.00;102391.69;5077870;28;20108;-83
2022/03/16 02:33:15;;;;;;;48.15;23.02;;;;;;;1.87;100.00;102386.75;5075716;28;20123;-83
2022/03/16 02:35:41;;;;;;;51.28;23.98;;;;;;;1.95;100.00;102385.34;5065547;28;20056;-83
2022/03/16 02:38:07;;;;;;;47.63;23.05;;;;;;;1.96;100.00;102384.53;5074932;28;20086;-83
2022/03/16 02:40:32;;;;;;;49.95;23.00;;;;;;;1.95;100.00;102383.66;5071475;28;20028;-83
2022/03/16 02:42:58;;;;;;;51.67;23.85;;;;;;;1.93;100.00;102375.06;5066646;28;20029;-83
2022/03/16 02:45:23;;;;;;;46.60;22.25;;;;;;;1.98;100.00;102378.63;5075776;28;20040;-83
2022/03/16 02:47:49;;;;;;;48.88;22.95;;;;;;;2.07;100.00;102384.91;5079791;28;20035;-83
2022/03/16 02:50:16;;;;;;;46.28;22.52;;;;;;;2.11;100.00;102387.66;5077697;28;20034;-83
2022/03/16 02:52:42;;;;;;;48.10;23.35;;;;;;;2.13;100.00;102377.44;5081028;28;20046;-83
2022/03/16 02:55:08;;;;;;;47.30;23.67;;;;;;;2.16;100.00;102383.56;5066084;28;20505;-83
2022/03/16 02:57:34;;;;;;;46.13;22.92;;;;;;;2.11;100.00;102386.78;5075374;28;20033;-83
2022/03/16 02:59:59;;;;;;;46.75;23.30;;;;;;;2.09;100.00;102391.81;5062425;28;20028;-83
2022/03/16 03:02:25;;;;;;;46.22;23.42;;;;;;;2.12;100.00;102388.50;5073114;28;20120;-83
2022/03/16 03:04:50;;;;;;;46.05;22.48;;;;;;;2.09;100.00;102386.72;5080259;28;20031;-83
2022/03/16 03:07:16;;;;;;;46.35;22.00;;;;;;;2.06;100.00;102386.59;5074731;28;20040;-83
2022/03/16 03:09:41;;;;;;;49.10;22.30;;;;;;;2.03;100.00;102378.81;5079958;28;20045;-83
2022/03/16 03:12:07;;;;;;;43.85;21.23;;;;;;;2.01;100.00;102387.25;5078604;28;20100;-83
2022/03/16 03:14:32;;;;;;;42.72;21.42;;;;;;;1.95;100.00;102386.22;5093179;28;20083;-83
2022/03/16 03:16:58;;;;;;;42.15;20.80;;;;;;;1.92;100.00;102383.53;5060577;28;20479;-83
2022/03/16 03:19:23;;;;;;;43.33;21.23;;;;;;;1.90;100.00;102382.63;5081345;28;20035;-83
2022/03/16 03:21:49;;;;;;;45.53;21.02;;;;;;;1.88;100.00;102379.13;5054544;28;20036;-83
2022/03/16 03:24:15;;;;;;;43.83;21.10;;;;;;;1.88;100.00;102376.59;5085437;28;20603;-83
2022/03/16 03:26:40;;;;;;;44.22;21.55;;;;;;;1.88;100.00;102380.81;5072067;28;20056;-83
2022/03/16 03:29:06;;;;;;;43.42;21.38;;;;;;;1.85;100.00;102371.34;5090774;28;20028;-83
2022/03/16 03:31:31;;;;;;;44.58;21.55;;;;;;;1.86;100.00;102377.34;5076205;28;20008;-83
2022/03/16 03:33:57;;;;;;;40.83;20.75;;;;;;;1.83;100.00;102372.13;5077381;28;20111;-83
2022/03/16 03:36:22;;;;;;;44.92;20.92;;;;;;;1.82;100.00;102386.59;5070361;28;20024;-83
2022/03/16 03:38:48;;;;;;;43.60;21.25;;;;;;;1.82;100.00;102381.47;5083710;28;20028;-83
2022/03/16 03:41:13;;;;;;;44.20;21.25;;;;;;;1.78;100.00;102382.16;5071885;28;20029;-83
2022/03/16 03:43:38;;;;;;;46.17;21.77;;;;;;;1.80;100.00;102385.66;5072885;28;20028;-83
2022/03/16 03:46:04;;;;;;;45.55;21.23;;;;;;;1.79;100.00;102393.25;5076149;28;21106;-83
2022/03/16 03:48:29;;;;;;;47.83;22.33;;;;;;;1.79;100.00;102389.03;5078973;28;20023;-83
2022/03/16 03:50:55;;;;;;;45.88;21.92;;;;;;;1.81;100.00;102387.41;5075185;28;20029;-83
2022/03/16 03:53:20;;;;;;;49.25;23.83;;;;;;;1.85;100.00;102379.00;5054879;28;20048;-83
2022/03/16 03:55:45;;;;;;;50.47;23.67;;;;;;;1.85;100.00;102383.25;5069519;28;20480;-83
2022/03/16 03:58:11;;;;;;;49.65;22.63;;;;;;;1.85;100.00;102376.47;5080141;28;20492;-83
2022/03/16 04:00:36;;;;;;;51.47;22.92;;;;;;;1.82;100.00;102381.47;5074981;28;20028;-83
2022/03/16 04:03:01;;;;;;;46.47;22.50;;;;;;;1.86;100.00;102382.44;5059015;28;20028;-83
2022/03/16 04:05:26;;;;;;;46.80;22.77;;;;;;;1.85;100.00;102389.25;5077578;28;20706;-83
2022/03/16 04:07:52;;;;;;;46.38;22.00;;;;;;;1.82;100.00;102390.81;5063664;28;20143;-84
2022/03/16 04:10:17;;;;;;;43.40;21.33;;;;;;;1.79;100.00;102386.47;5078459;28;20081;-84
2022/03/16 04:12:43;;;;;;;45.17;22.10;;;;;;;1.80;100.00;102384.78;5075919;28;20458;-84
2022/03/16 04:15:10;;;;;;;43.42;21.55;;;;;;;1.82;100.00;102385.72;5080309;28;20024;-84
2022/03/16 04:17:35;;;;;;;53.30;25.30;;;;;;;1.85;100.00;102396.91;5071628;28;20139;-84
2022/03/16 04:20:00;;;;;;;48.67;23.30;;;;;;;1.84;100.00;102389.22;5082321;28;20048;-84
2022/03/16 04:22:27;;;;;;;48.80;22.25;;;;;;;1.82;100.00;102384.03;5078432;28;20085;-84
2022/03/16 04:24:52;;;;;;;47.25;22.77;;;;;;;1.82;100.00;102378.91;5093269;28;20091;-84
2022/03/16 04:27:18;;;;;;;51.22;24.77;;;;;;;1.82;100.00;102390.81;5091482;28;20069;-83
2022/03/16 04:29:43;;;;;;;50.00;24.05;;;;;;;1.85;100.00;102390.94;5089885;28;20028;-84
2022/03/16 04:32:08;;;;;;;50.80;23.77;;;;;;;1.87;100.00;102391.84;5077910;28;20086;-83
2022/03/16 04:34:33;;;;;;;51.13;24.55;;;;;;;1.88;100.00;102389.38;5066200;28;20485;-83
2022/03/16 04:36:59;;;;;;;52.45;25.13;;;;;;;1.87;100.00;102384.19;5078300;28;20028;-84
2022/03/16 04:39:24;;;;;;;52.78;24.50;;;;;;;1.90;100.00;102379.19;5069709;28;20032;-83
2022/03/16 04:41:49;;;;;;;51.47;23.53;;;;;;;1.94;100.00;102376.81;5074343;28;20471;-83
2022/03/16 04:44:15;;;;;;;51.97;24.90;;;;;;;1.96;100.00;102379.41;5072653;28;20271;-84
2022/03/16 04:46:40;;;;;;;51.47;23.98;;;;;;;1.93;100.00;102375.06;5075263;28;20032;-84
2022/03/16 04:49:05;;;;;;;53.30;25.35;;;;;;;1.92;100.00;102375.00;5078521;28;20048;-84
2022/03/16 04:51:31;;;;;;;51.85;25.83;;;;;;;1.91;100.00;102375.84;5075079;28;20058;-84
2022/03/16 04:53:56;;;;;;;53.63;24.33;;;;;;;1.88;100.00;102378.25;5074125;28;20506;-83
2022/03/16 04:56:21;;;;;;;51.53;23.85;;;;;;;1.82;100.00;102375.50;5061239;28;20032;-84
2022/03/16 04:58:47;;;;;;;50.88;24.30;;;;;;;1.83;100.00;102374.69;5074929;28;20042;-84
2022/03/16 05:01:12;;;;;;;54.30;26.38;;;;;;;1.88;100.00;102376.59;5080692;28;20051;-84
2022/03/16 05:03:37;;;;;;;51.85;24.73;;;;;;;1.90;100.00;102372.41;5078358;28;20113;-84
2022/03/16 05:06:05;;;;;;;57.35;25.92;;;;;;;1.91;100.00;102375.84;5075675;28;20035;-84
2022/03/16 05:08:35;;;;;;;54.92;25.95;;;;;;;1.89;100.00;102370.66;5071324;28;20393;-84
2022/03/16 05:11:01;;;;;;;55.88;25.83;;;;;;;1.91;100.00;102376.69;5071987;28;20031;-84
2022/03/16 05:13:26;;;;;;;59.45;25.98;;;;;;;1.93;100.00;102374.19;5091704;28;20027;-84
2022/03/16 05:15:52;;;;;;;53.15;24.52;;;;;;;1.91;100.00;102370.72;5094556;28;20397;-84
2022/03/16 05:18:17;;;;;;;54.10;25.77;;;;;;;1.92;100.00;102372.44;5087708;28;20024;-84
2022/03/16 05:20:43;;;;;;;54.45;25.80;;;;;;;1.90;100.00;102368.97;5091025;28;20028;-84
2022/03/16 05:23:08;;;;;;;58.03;27.27;;;;;;;1.96;100.00;102389.66;5093455;28;20465;-84
2022/03/16 05:25:33;;;;;;;60.28;25.52;;;;;;;1.95;100.00;102382.78;5092816;28;20030;-84
2022/03/16 05:27:59;;;;;;;57.60;25.92;;;;;;;1.95;100.00;102378.56;5097949;28;20020;-84
2022/03/16 05:30:26;;;;;;;55.33;25.75;;;;;;;1.96;100.00;102380.28;5091255;28;20034;-84
2022/03/16 05:32:54;;;;;;;56.13;24.88;;;;;;;1.97;100.00;102370.94;5088231;28;20082;-84
2022/03/16 05:35:19;;;;;;;57.33;25.15;;;;;;;2.03;100.00;102370.28;5090341;28;20035;-84
2022/03/16 05:37:45;;;;;;;53.92;23.98;;;;;;;2.02;100.00;102363.41;5110430;28;20023;-84
2022/03/16 05:40:11;;;;;;;54.72;23.73;;;;;;;2.04;100.00;102367.78;5095134;28;20036;-84
2022/03/16 05:42:36;;;;;;;54.30;24.70;;;;;;;2.07;100.00;102369.56;5068360;28;20031;-84
2022/03/16 05:45:03;;;;;;;51.17;23.33;;;;;;;2.10;100.00;102367.13;5087532;28;20392;-84
2022/03/16 05:47:28;;;;;;;54.28;24.70;;;;;;;2.13;100.00;102373.19;5092938;28;20031;-84
2022/03/16 05:49:54;;;;;;;52.50;22.98;;;;;;;2.12;100.00;102360.34;5088469;28;20028;-84
2022/03/16 05:52:22;;;;;;;51.03;23.77;;;;;;;2.16;100.00;102362.22;5084816;28;20112;-84
2022/03/16 05:54:52;;;;;;;50.35;22.52;;;;;;;2.17;100.00;102364.84;5080151;28;20613;-84
2022/03/16 05:57:17;;;;;;;48.65;21.85;;;;;;;2.20;100.00;102364.94;5080834;28;20032;-84
2022/03/16 05:59:44;;;;;;;51.03;22.92;;;;;;;2.26;100.00;102371.94;5084128;28;20024;-84
2022/03/16 06:02:12;;;;;;;45.75;21.60;;;;;;;2.28;100.00;102368.63;5063971;28;20795;-84
2022/03/16 06:04:39;;;;;;;44.90;20.60;;;;;;;2.34;100.00;102375.63;5079919;28;20550;-84
2022/03/16 06:07:05;;;;;;;44.10;19.70;;;;;;;2.41;100.00;102379.28;5081026;28;20032;-83
2022/03/16 06:09:31;;;;;;;44.28;20.52;;;;;;;2.46;100.00;102377.75;5075022;28;20535;-84
2022/03/16 06:11:57;;;;;;;42.15;19.25;;;;;;;2.51;100.00;102376.22;5080813;28;20020;-83
2022/03/16 06:14:22;;;;;;;44.42;19.33;;;;;;;2.60;100.00;102382.50;5085378;28;20030;-84
2022/03/16 06:16:47;;;;;;;41.45;19.48;;;;;;;2.66;100.00;102385.25;5071361;28;20032;-84
2022/03/16 06:19:13;;;;;;;43.67;19.98;;;;;;;2.73;100.00;102373.53;5091194;28;20528;-84
2022/03/16 06:21:39;;;;;;;44.53;19.45;;;;;;;2.84;100.00;102386.69;5088646;28;20032;-84
2022/03/16 06:24:06;;;;;;;42.58;17.85;;;;;;;2.94;100.00;102386.16;5094269;28;20034;-84
2022/03/16 06:26:32;;;;;;;40.17;18.63;;;;;;;3.06;100.00;102384.03;5081395;28;20492;-84
2022/03/16 06:28:57;;;;;;;40.28;17.83;;;;;;;3.16;100.00;102386.03;5091493;28;20047;-84
2022/03/16 06:31:23;;;;;;;34.85;16.75;;;;;;;3.28;100.00;102386.41;5086375;28;20077;-84
2022/03/16 06:33:48;;;;;;;38.25;18.05;;;;;;;3.42;100.00;102395.38;5092798;28;20019;-84
2022/03/16 06:36:14;;;;;;;33.63;16.80;;;;;;;3.56;100.00;102386.41;5089338;28;20059;-84
2022/03/16 06:38:39;;;;;;;38.78;17.10;;;;;;;3.76;100.00;102381.88;5100295;28;20036;-84
2022/03/16 06:41:05;;;;;;;35.28;16.88;;;;;;;4.11;100.00;102379.41;5093568;28;20077;-84
2022/03/16 06:43:30;;;;;;;41.20;17.23;;;;;;;4.83;100.00;102374.47;5095105;28;20066;-84
2022/03/16 06:45:55;;;;;;;38.85;17.20;;;;;;;5.73;100.00;102380.78;5090406;28;20076;-84
2022/03/16 06:48:23;;;;;;;28.60;13.32;;;;;;;6.19;94.21;102381.75;5086683;28;20051;-84
2022/03/16 06:50:52;;;;;;;21.67;11.75;;;;;;;6.09;91.13;102370.41;5099943;28;20039;-84
2022/03/16 06:53:17;;;;;;;20.92;11.30;;;;;;;5.94;90.72;102377.81;5091426;28;20038;-84
2022/03/16 06:55:42;;;;;;;23.63;11.85;;;;;;;6.00;91.58;102374.53;5102110;28;20048;-83
2022/03/16 06:58:08;;;;;;;23.73;11.63;;;;;;;6.43;90.86;102373.59;5109778;28;20165;-84
2022/03/16 07:00:33;;;;;;;23.25;11.90;;;;;;;7.16;88.21;102378.25;5078854;28;20028;-84
2022/03/16 07:03:01;;;;;;;21.63;11.00;;;;;;;8.36;83.58;102366.00;5091702;28;20024;-84
2022/03/16 07:05:32;;;;;;;19.60;10.00;;;;;;;8.75;78.97;102362.91;5093197;28;20024;-84
2022/03/16 07:07:59;;;;;;;19.13;9.75;;;;;;;9.14;78.84;102355.47;5074778;28;20044;-84
2022/03/16 07:10:25;;;;;;;17.67;9.32;;;;;;;10.23;75.67;102357.69;5093041;28;20023;-84
2022/03/16 07:12:51;;;;;;;17.65;9.23;;;;;;;11.08;71.13;102350.78;5106915;28;20095;-84
2022/03/16 07:15:16;;;;;;;16.13;9.07;;;;;;;10.95;69.04;102356.00;5086931;28;20156;-85
2022/03/16 07:17:42;;;;;;;16.67;9.18;;;;;;;10.32;70.92;102347.31;5077287;28;20030;-85
2022/03/16 07:20:08;;;;;;;18.45;9.60;;;;;;;9.76;71.44;102340.22;5073822;28;20038;-84
2022/03/16 07:22:37;;;;;;;14.48;8.55;;;;;;;9.10;73.80;102340.75;5090229;28;20024;-84
2022/03/16 07:25:04;;;;;;;14.52;8.57;;;;;;;8.53;74.99;102338.63;5092729;28;20028;-85
2022/03/16 07:27:29;;;;;;;17.33;8.98;;;;;;;8.07;76.88;102329.50;5084132;28;20035;-84
2022/03/16 07:29:55;;;;;;;15.20;9.13;;;;;;;7.73;77.95;102341.19;5109097;28;20031;-85
2022/03/16 07:32:20;;;;;;;15.52;8.98;;;;;;;7.47;79.00;102334.00;5089524;28;20039;-84
2022/03/16 07:34:46;;;;;;;17.58;9.02;;;;;;;7.36;80.17;102329.53;5110570;28;20050;-85
2022/03/16 07:37:12;;;;;;;15.85;9.13;;;;;;;7.40;80.33;102334.75;5094122;28;20028;-84
2022/03/16 07:39:37;;;;;;;18.10;9.73;;;;;;;7.41;79.34;102326.16;5092448;28;20527;-84
2022/03/16 07:42:02;;;;;;;16.38;9.30;;;;;;;7.35;79.54;102320.06;5071934;28;20036;-85
2022/03/16 07:44:28;;;;;;;18.45;9.43;;;;;;;7.42;80.65;102324.47;5082388;28;20044;-85
2022/03/16 07:46:53;;;;;;;17.08;9.63;;;;;;;7.59;80.47;102327.25;5073819;28;20612;-85
2022/03/16 07:49:18;;;;;;;18.50;9.55;;;;;;;7.97;80.24;102327.69;5092653;28;20107;-85
2022/03/16 07:51:44;;;;;;;15.07;8.75;;;;;;;8.50;77.69;102313.59;5092865;28;20110;-85
2022/03/16 07:54:09;;;;;;;15.83;9.03;;;;;;;8.82;75.71;102318.16;5095973;28;20028;-85
2022/03/16 07:56:34;;;;;;;18.40;9.10;;;;;;;9.05;75.43;102307.13;5073631;28;20340;-85
2022/03/16 07:59:01;;;;;;;15.85;8.57;;;;;;;9.40;73.76;102314.22;5096635;28;20273;-85
2022/03/16 08:01:27;;;;;;;17.15;9.20;;;;;;;9.66;72.95;102317.78;5099061;28;20023;-85
2022/03/16 08:03:53;;;;;;;17.83;9.50;;;;;;;9.81;72.70;102315.25;5105950;28;20504;-85
2022/03/16 08:06:18;;;;;;;15.88;9.25;;;;;;;9.74;72.07;102297.09;5090306;28;20077;-84
2022/03/16 08:08:44;;;;;;;16.55;9.65;;;;;;;9.87;71.78;102309.22;5091627;28;20072;-84
2022/03/16 08:11:09;;;;;;;15.88;8.90;;;;;;;10.10;71.85;102310.09;5091184;28;20380;-84
2022/03/16 08:13:36;;;;;;;14.15;8.63;;;;;;;10.37;68.95;102304.16;5091360;28;20721;-84
2022/03/16 08:16:03;;;;;;;16.00;9.02;;;;;;;10.60;70.12;102305.00;5091763;28;20024;-84
2022/03/16 08:18:29;;;;;;;18.48;9.75;;;;;;;10.85;69.04;102307.59;5091653;28;20111;-84
2022/03/16 08:20:54;;;;;;;18.65;9.93;;;;;;;10.98;66.50;102323.13;5094390;28;20099;-84
2022/03/16 08:23:19;;;;;;;21.90;10.10;;;;;;;11.50;71.79;102317.78;5090551;28;20047;-84
2022/03/16 08:25:45;;;;;;;16.55;10.10;;;;;;;12.18;65.72;102325.25;5090035;28;20024;-84
2022/03/16 08:28:10;;;;;;;16.33;9.55;;;;;;;12.98;63.98;102315.91;5090169;28;20043;-84
2022/03/16 08:30:35;;;;;;;19.42;10.35;;;;;;;13.20;60.75;102321.78;5090019;28;20031;-84
2022/03/16 08:33:02;;;;;;;16.17;9.10;;;;;;;12.92;59.32;102312.50;5073014;28;20024;-84
2022/03/16 08:35:27;;;;;;;17.63;9.63;;;;;;;12.50;60.58;102319.81;5089166;28;20028;-84
2022/03/16 08:37:53;;;;;;;16.50;9.90;;;;;;;12.20;61.20;102320.06;5091034;28;20028;-84
2022/03/16 08:40:19;;;;;;;17.30;9.70;;;;;;;12.16;62.19;102315.72;5089792;28;20042;-84
2022/03/16 08:42:44;;;;;;;15.27;9.77;;;;;;;12.32;61.87;102312.16;5074668;28;20393;-84
2022/03/16 08:45:10;;;;;;;19.30;10.60;;;;;;;12.65;61.06;102298.00;5091265;28;20134;-84
2022/03/16 08:47:36;;;;;;;18.00;9.68;;;;;;;13.14;59.05;102301.03;5090557;28;20121;-84
2022/03/16 08:50:01;;;;;;;17.77;9.98;;;;;;;13.49;57.17;102297.16;5073224;28;20107;-84
2022/03/16 08:52:26;;;;;;;17.67;10.10;;;;;;;13.94;57.67;102301.75;5080922;28;20496;-84
2022/03/16 08:54:52;;;;;;;17.58;10.68;;;;;;;14.23;55.71;102304.78;5090120;28;20044;-84
2022/03/16 08:57:17;;;;;;;17.17;10.48;;;;;;;14.19;55.21;102304.88;5102892;28;20020;-84
2022/03/16 08:59:43;;;;;;;29.95;10.32;;;;;;;14.12;57.03;102303.25;5077990;28;20188;-84
2022/03/16 09:02:09;;;;;;;16.08;9.85;;;;;;;13.97;55.98;102304.31;5097364;28;20047;-84
2022/03/16 09:04:34;;;;;;;17.08;9.70;;;;;;;13.71;56.36;102306.44;5087750;28;20073;-85
2022/03/16 09:07:02;;;;;;;16.88;10.63;;;;;;;13.68;57.60;102303.84;5088884;28;20024;-85
2022/03/16 09:09:29;;;;;;;21.75;11.07;;;;;;;13.63;57.38;102306.53;5068316;28;20045;-86
2022/03/16 09:11:54;;;;;;;17.75;10.50;;;;;;;13.40;55.26;102312.00;5088094;28;20481;-87
2022/03/16 09:14:20;;;;;;;20.73;10.38;;;;;;;13.17;58.87;102311.41;5084083;28;20024;-85
2022/03/16 09:16:45;;;;;;;18.47;10.03;;;;;;;13.14;58.65;102311.44;5088022;28;20108;-84
2022/03/16 09:19:15;;;;;;;20.98;10.63;;;;;;;13.01;57.80;102315.03;5089627;28;20321;-84
2022/03/16 09:21:43;;;;;;;18.30;10.05;;;;;;;12.72;59.03;102312.69;5095108;28;20081;-84
2022/03/16 09:24:09;;;;;;;17.63;10.27;;;;;;;12.51;59.69;102299.88;5111206;28;20036;-84
2022/03/16 09:26:35;;;;;;;19.75;10.48;;;;;;;12.31;59.12;102305.22;5105435;28;20016;-83
2022/03/16 09:29:00;;;;;;;18.10;10.70;;;;;;;12.30;62.82;102307.84;5086185;28;20034;-85
2022/03/16 09:31:26;;;;;;;18.48;10.75;;;;;;;12.33;61.39;102293.09;5074070;28;20409;-84
2022/03/16 09:33:51;;;;;;;18.65;10.68;;;;;;;12.37;60.49;102299.13;5089229;28;20028;-84
2022/03/16 09:36:17;;;;;;;19.73;10.93;;;;;;;12.30;61.26;102292.22;5084623;28;20490;-84
2022/03/16 09:38:42;;;;;;;22.85;11.15;;;;;;;12.29;60.68;102299.16;5089060;28;20024;-85
2022/03/16 09:41:07;;;;;;;19.13;11.02;;;;;;;12.22;60.55;102294.88;5093541;28;20169;-85
2022/03/16 09:43:35;;;;;;;19.83;11.10;;;;;;;12.21;61.50;102301.00;5090105;28;20020;-85
2022/03/16 09:46:11;;;;;;;19.05;10.85;;;;;;;12.15;61.46;102301.00;5089674;28;20288;-85
2022/03/16 09:48:40;;;;;;;19.48;11.50;;;;;;;12.12;61.09;102294.09;5077378;28;20031;-85
2022/03/16 09:51:09;;;;;;;19.50;11.57;;;;;;;12.21;61.78;102299.22;5072207;28;20020;-85
2022/03/16 09:53:35;;;;;;;21.30;11.63;;;;;;;12.31;62.08;102299.16;5089716;28;20024;-86
2022/03/16 09:56:00;;;;;;;19.55;11.15;;;;;;;12.30;60.38;102300.91;5089459;28;20408;-86
2022/03/16 09:58:26;;;;;;;20.73;11.70;;;;;;;12.25;59.81;102295.75;5090179;28;20024;-86
2022/03/16 10:00:53;;;;;;;20.77;11.68;;;;;;;12.28;61.93;102310.47;5097095;28;20031;-86
2022/03/16 10:03:21;;;;;;;19.75;11.57;;;;;;;12.33;61.65;102306.09;5089833;28;20293;-85
2022/03/16 10:05:47;;;;;;;21.48;11.75;;;;;;;12.32;60.41;102291.34;5092668;28;20397;-85
2022/03/16 10:08:14;;;;;;;18.55;11.25;;;;;;;12.27;61.12;102285.34;5089112;28;20126;-86
2022/03/16 10:13:25;;;;;;;21.77;12.38;;;;;;;12.13;62.11;102293.25;5090170;28;20103;-85
2022/03/16 10:15:52;;;;;;;21.33;12.13;;;;;;;12.07;62.42;102293.28;5088804;28;20024;-85
2022/03/16 10:18:20;;;;;;;21.92;12.45;;;;;;;11.95;61.49;102282.94;5089730;28;20513;-85
2022/03/16 10:20:47;;;;;;;21.80;12.77;;;;;;;11.93;62.58;102286.44;5087010;28;20081;-85
2022/03/16 10:23:24;;;;;;;24.13;12.90;;;;;;;11.94;62.83;102291.59;5108928;28;20024;-85
2022/03/16 10:25:51;;;;;;;23.33;11.70;;;;;;;12.03;62.08;102275.09;5084479;28;20024;-85
2022/03/16 10:28:22;;;;;;;23.58;13.07;;;;;;;12.07;62.66;102274.22;5094310;28;20027;-85
2022/03/16 10:31:02;;;;;;;22.35;13.05;;;;;;;12.03;63.04;102282.91;5088063;28;20051;-85
2022/03/16 10:33:33;;;;;;;22.73;12.20;;;;;;;12.00;63.27;102289.00;5094032;28;20020;-85
2022/03/16 10:36:05;;;;;;;23.25;11.35;;;;;;;12.07;63.17;102285.50;5075484;28;20024;-85
2022/03/16 10:39:03;;;;;;;22.17;12.20;;;;;;;12.15;64.28;102288.00;5075053;28;20520;-84
2022/03/16 10:47:20;;;;;;;20.70;12.02;;;;;;;12.37;63.29;102275.72;5105238;28;20391;-84
2022/03/16 10:50:00;;;;;;;21.10;12.13;;;;;;;12.44;61.62;102275.66;5090339;28;20040;-84
2022/03/16 10:52:27;;;;;;;21.83;12.43;;;;;;;12.52;62.02;102273.84;5093483;28;20012;-84
2022/03/16 10:54:53;;;;;;;20.50;12.48;;;;;;;12.66;61.97;102274.59;5093528;28;20109;-84
2022/03/16 10:57:20;;;;;;;23.23;13.43;;;;;;;12.69;61.31;102270.25;5093197;28;20024;-84
2022/03/16 10:59:49;;;;;;;23.02;12.45;;;;;;;12.67;60.90;102270.25;5103830;28;20056;-84
2022/03/16 11:02:17;;;;;;;21.25;12.90;;;;;;;12.58;61.29;102260.78;5093069;28;20020;-84
2022/03/16 11:04:44;;;;;;;22.80;12.50;;;;;;;12.65;61.54;102249.44;5074850;28;20028;-84
2022/03/16 11:07:10;;;;;;;28.67;12.73;;;;;;;12.74;63.24;102250.25;5072028;28;20237;-84
2022/03/16 11:09:37;;;;;;;25.50;12.15;;;;;;;12.85;61.82;102256.19;5090845;28;20099;-84
2022/03/16 11:14:51;;;;;;;21.67;12.13;;;;;;;12.98;62.11;102248.22;5093278;28;20046;-84
2022/03/16 11:17:18;;;;;;;20.40;12.25;;;;;;;13.02;60.40;102256.88;5088843;28;20050;-84